Time;durP1;ratioP1;P1;durP2;ratioP2;P2;SDS_P1;SDS_P2;PMS_P1;PMS_P2;Temp;Humidity;BMP_temperature;BMP_pressure;BME280_temperature;BME280_humidity;BME280_pressure;Samples;Min_cycle;Max_cycle;Signal;HPM_P1;HPM_P2
2022/02/19 00:01:48;;;;;;;7.68;2.95;;;21.50;44.60;;;;;;4972111;28;92024;-87
2022/02/19 00:04:21;;;;;;;6.63;2.75;;;21.40;44.60;;;;;;4972516;28;92255;-85
2022/02/19 00:06:46;;;;;;;8.35;3.58;;;21.40;44.50;;;;;;4972649;28;92609;-87
2022/02/19 00:09:12;;;;;;;9.95;3.90;;;21.40;44.50;;;;;;4971952;28;92430;-87
2022/02/19 00:11:39;;;;;;;7.78;3.58;;;21.40;44.60;;;;;;4970766;28;93825;-87
2022/02/19 00:14:05;;;;;;;8.48;3.35;;;21.40;44.50;;;;;;4970435;28;93347;-86
2022/02/19 00:16:30;;;;;;;9.20;3.63;;;21.40;44.50;;;;;;4969428;28;92416;-86
2022/02/19 00:18:56;;;;;;;8.23;3.45;;;21.40;44.60;;;;;;4970153;28;92091;-88
2022/02/19 00:21:21;;;;;;;8.43;3.13;;;21.40;44.50;;;;;;4971215;28;93184;-86
2022/02/19 00:23:47;;;;;;;9.38;3.30;;;21.40;44.60;;;;;;4971821;28;92706;-84
2022/02/19 00:26:13;;;;;;;8.50;3.15;;;21.40;44.40;;;;;;4971850;28;92409;-83
2022/02/19 00:28:38;;;;;;;8.68;3.03;;;21.30;44.50;;;;;;4970925;28;92216;-85
2022/02/19 00:31:04;;;;;;;8.18;3.30;;;21.40;44.70;;;;;;4969822;28;93754;-86
2022/02/19 00:33:31;;;;;;;5.82;2.88;;;21.30;44.50;;;;;;4969732;28;92791;-86
2022/02/19 00:35:57;;;;;;;8.23;3.03;;;21.40;44.70;;;;;;4968586;28;94230;-82
2022/02/19 00:38:22;;;;;;;6.13;2.92;;;21.30;44.50;;;;;;4969754;28;92576;-84
2022/02/19 00:40:49;;;;;;;8.13;3.25;;;21.30;44.60;;;;;;4969604;28;93162;-83
2022/02/19 00:43:15;;;;;;;7.15;3.17;;;21.30;44.60;;;;;;4970652;28;92999;-86
2022/02/19 00:45:41;;;;;;;10.23;3.00;;;21.30;44.60;;;;;;4966204;28;92110;-85
2022/02/19 00:48:07;;;;;;;6.80;3.15;;;21.30;44.40;;;;;;4969741;28;92957;-86
2022/02/19 00:50:33;;;;;;;6.38;2.83;;;21.20;45.10;;;;;;4969365;28;93061;-86
2022/02/19 00:52:58;;;;;;;5.88;2.60;;;21.20;44.40;;;;;;4968545;28;94394;-86
2022/02/19 00:55:24;;;;;;;8.35;2.80;;;21.30;44.40;;;;;;4957191;28;92833;-84
2022/02/19 00:57:50;;;;;;;7.53;3.08;;;21.30;44.50;;;;;;4970227;28;92390;-82
2022/02/19 01:00:17;;;;;;;8.32;3.40;;;21.20;44.20;;;;;;4968698;28;93521;-81
2022/02/19 01:02:42;;;;;;;7.47;2.83;;;21.30;44.30;;;;;;4969543;28;93294;-83
2022/02/19 01:05:09;;;;;;;6.53;2.92;;;21.30;44.30;;;;;;4968576;28;92442;-84
2022/02/19 01:07:35;;;;;;;5.85;3.00;;;21.30;44.20;;;;;;4969274;28;93085;-83
2022/02/19 01:10:02;;;;;;;6.15;2.55;;;21.20;44.20;;;;;;4969451;28;93958;-82
2022/02/19 01:12:28;;;;;;;8.00;3.33;;;21.20;44.00;;;;;;4983615;28;93984;-82
2022/02/19 01:14:53;;;;;;;6.57;2.80;;;21.20;43.90;;;;;;4969445;28;92033;-84
2022/02/19 01:17:19;;;;;;;7.68;2.65;;;21.20;44.00;;;;;;4969706;28;91202;-83
2022/02/19 01:19:45;;;;;;;7.28;2.50;;;21.20;43.90;;;;;;4967670;28;92634;-82
2022/02/19 01:22:11;;;;;;;8.98;3.22;;;21.20;43.90;;;;;;4967826;28;92923;-82
2022/02/19 01:24:36;;;;;;;8.60;3.10;;;21.20;43.80;;;;;;4968524;28;94218;-82
2022/02/19 01:27:02;;;;;;;6.47;2.80;;;21.20;43.70;;;;;;4968892;28;92682;-84
2022/02/19 01:29:29;;;;;;;6.55;3.15;;;21.10;43.70;;;;;;4966155;28;95792;-85
2022/02/19 01:31:54;;;;;;;7.63;2.90;;;21.20;43.60;;;;;;4968060;28;92545;-85
2022/02/19 01:34:22;;;;;;;6.20;2.75;;;21.20;43.70;;;;;;4967428;28;91944;-83
2022/02/19 01:36:48;;;;;;;6.88;2.70;;;21.10;43.60;;;;;;4966842;28;92425;-86
2022/02/19 01:39:14;;;;;;;4.97;2.38;;;21.10;43.50;;;;;;4967127;28;93157;-83
2022/02/19 01:41:40;;;;;;;6.38;2.63;;;21.10;43.40;;;;;;4968538;28;93292;-83
2022/02/19 01:44:14;;;;;;;5.18;2.78;;;21.10;43.40;;;;;;4956896;28;92821;-88
2022/02/19 01:46:40;;;;;;;7.47;2.78;;;21.10;43.50;;;;;;4966873;28;93096;-83
2022/02/19 01:49:07;;;;;;;5.88;2.63;;;21.10;43.40;;;;;;4966468;28;94039;-83
2022/02/19 01:51:35;;;;;;;8.90;2.90;;;21.10;43.50;;;;;;4968166;28;94205;-81
2022/02/19 01:54:06;;;;;;;5.38;2.63;;;21.10;43.30;;;;;;4968270;28;92557;-86
2022/02/19 01:56:33;;;;;;;8.38;3.08;;;21.10;43.40;;;;;;4967887;28;92568;-82
2022/02/19 01:58:59;;;;;;;7.07;2.50;;;21.10;43.40;;;;;;4967770;28;93036;-84
2022/02/19 02:01:24;;;;;;;5.70;2.25;;;21.10;43.40;;;;;;4965991;28;95020;-84
2022/02/19 02:03:50;;;;;;;6.80;2.50;;;21.10;43.20;;;;;;4966358;28;93209;-84
2022/02/19 02:06:17;;;;;;;6.22;2.75;;;21.00;43.30;;;;;;4967829;28;91293;-83
2022/02/19 02:08:44;;;;;;;5.57;2.45;;;21.10;42.90;;;;;;4967781;28;92778;-85
2022/02/19 02:11:10;;;;;;;6.88;2.50;;;21.00;42.80;;;;;;4967675;28;92594;-85
2022/02/19 02:13:35;;;;;;;7.13;2.75;;;21.10;42.80;;;;;;4973129;28;93273;-82
2022/02/19 02:16:01;;;;;;;5.78;2.60;;;21.00;42.50;;;;;;4967585;28;92399;-84
2022/02/19 02:18:27;;;;;;;7.03;2.88;;;21.00;42.80;;;;;;4966562;28;93478;-82
2022/02/19 02:21:00;;;;;;;6.43;3.20;;;21.00;42.60;;;;;;4964927;28;95060;-83
2022/02/19 02:23:25;;;;;;;7.28;2.35;;;21.10;42.70;;;;;;4965677;28;92667;-85
2022/02/19 02:25:53;;;;;;;10.15;2.80;;;21.10;42.90;;;;;;4963381;28;92885;-84
2022/02/19 02:28:19;;;;;;;9.52;2.80;;;21.00;43.20;;;;;;4965089;28;94076;-84
2022/02/19 02:30:46;;;;;;;5.80;2.22;;;21.00;43.00;;;;;;4965673;28;92360;-82
2022/02/19 02:33:14;;;;;;;7.25;2.80;;;21.00;43.00;;;;;;4965928;28;93096;-84
2022/02/19 02:35:40;;;;;;;7.03;3.00;;;21.00;43.00;;;;;;4965822;28;92831;-82
2022/02/19 02:38:08;;;;;;;6.63;2.10;;;21.00;43.00;;;;;;4963470;28;93402;-84
2022/02/19 02:40:35;;;;;;;9.20;2.80;;;21.00;43.20;;;;;;4967389;28;93191;-83
2022/02/19 02:43:02;;;;;;;4.90;2.33;;;21.00;43.00;;;;;;4968185;28;92523;-82
2022/02/19 02:45:27;;;;;;;5.75;2.40;;;21.00;43.10;;;;;;4968582;28;92491;-83
2022/02/19 02:47:53;;;;;;;6.45;2.65;;;21.00;43.00;;;;;;4967798;28;95296;-82
2022/02/19 02:50:18;;;;;;;5.75;2.35;;;21.00;43.00;;;;;;4967530;28;93067;-83
2022/02/19 02:52:45;;;;;;;4.85;2.17;;;21.00;43.00;;;;;;4968236;28;92646;-87
2022/02/19 02:55:12;;;;;;;4.60;2.17;;;21.00;42.90;;;;;;4968986;28;92129;-82
2022/02/19 02:57:38;;;;;;;7.00;2.22;;;21.00;43.00;;;;;;4968840;28;93051;-82
2022/02/19 03:00:16;;;;;;;7.28;2.20;;;21.00;43.70;;;;;;4968240;28;92954;-82
2022/02/19 03:02:43;;;;;;;5.03;2.30;;;21.00;43.10;;;;;;4982917;28;93757;-82
2022/02/19 03:05:10;;;;;;;5.35;2.20;;;21.00;43.10;;;;;;4967457;28;92394;-81
2022/02/19 03:07:36;;;;;;;4.53;2.30;;;20.90;43.00;;;;;;4967249;28;93697;-84
2022/02/19 03:10:04;;;;;;;6.05;2.47;;;20.90;43.10;;;;;;4967238;28;92693;-82
2022/02/19 03:12:29;;;;;;;6.10;2.42;;;20.90;43.00;;;;;;4967197;28;91875;-83
2022/02/19 03:14:55;;;;;;;5.88;2.28;;;20.90;43.90;;;;;;4953877;28;93414;-82
2022/02/19 03:17:21;;;;;;;4.43;2.00;;;20.90;43.30;;;;;;4968935;28;93175;-83
2022/02/19 03:19:47;;;;;;;5.88;2.42;;;20.90;43.10;;;;;;4967902;28;92544;-84
2022/02/19 03:22:13;;;;;;;4.07;2.03;;;20.90;43.20;;;;;;4968990;28;93031;-82
2022/02/19 03:24:39;;;;;;;4.78;2.20;;;20.90;43.40;;;;;;4966888;28;92388;-84
2022/02/19 03:27:05;;;;;;;5.45;2.42;;;20.90;43.30;;;;;;4967437;28;93830;-81
2022/02/19 03:29:34;;;;;;;6.32;2.67;;;20.90;43.30;;;;;;4967858;28;93961;-83
2022/02/19 03:32:00;;;;;;;8.93;2.22;;;20.90;43.20;;;;;;4970944;28;92738;-88
2022/02/19 03:34:26;;;;;;;8.48;2.05;;;20.90;43.40;;;;;;4968300;28;93061;-84
2022/02/19 03:36:51;;;;;;;4.40;2.05;;;20.90;40.70;;;;;;4984968;28;95517;-85
2022/02/19 03:39:24;;;;;;;6.82;2.00;;;20.90;41.10;;;;;;4968582;28;92260;-85
2022/02/19 03:41:49;;;;;;;5.55;1.77;;;20.90;40.80;;;;;;4969879;28;92903;-84
2022/02/19 03:44:15;;;;;;;3.70;1.80;;;20.90;40.90;;;;;;4958341;28;91752;-79
2022/02/19 03:46:41;;;;;;;4.82;1.88;;;20.90;40.90;;;;;;4957070;28;94508;-82
2022/02/19 03:49:06;;;;;;;4.80;2.03;;;20.90;41.00;;;;;;4968493;28;92875;-80
2022/02/19 03:51:32;;;;;;;4.63;1.90;;;20.80;40.90;;;;;;4966485;28;93891;-82
2022/02/19 03:53:58;;;;;;;5.50;1.88;;;20.90;40.70;;;;;;4968998;28;92478;-82
2022/02/19 03:56:24;;;;;;;4.38;1.90;;;20.80;41.10;;;;;;4969127;28;92419;-83
2022/02/19 03:58:49;;;;;;;3.40;1.92;;;20.80;41.00;;;;;;4983280;28;95507;-85
2022/02/19 04:01:16;;;;;;;4.45;2.15;;;20.80;41.50;;;;;;4969374;28;93478;-84
2022/02/19 04:03:42;;;;;;;5.10;1.90;;;20.80;41.20;;;;;;4968779;28;93210;-83
2022/02/19 04:06:08;;;;;;;6.78;2.10;;;20.80;41.10;;;;;;4968859;28;92680;-84
2022/02/19 04:08:34;;;;;;;5.03;2.15;;;20.80;40.90;;;;;;4969555;28;92204;-83
2022/02/19 04:10:59;;;;;;;6.32;2.30;;;20.80;41.10;;;;;;4969198;28;92770;-83
2022/02/19 04:13:25;;;;;;;4.95;1.73;;;20.80;41.20;;;;;;4969721;28;92790;-83
2022/02/19 04:15:51;;;;;;;3.25;1.98;;;20.80;41.00;;;;;;4968703;28;94366;-84
2022/02/19 04:18:17;;;;;;;4.55;2.15;;;20.80;41.40;;;;;;4968948;28;93273;-83
2022/02/19 04:20:43;;;;;;;4.35;1.90;;;20.70;40.90;;;;;;4967901;28;92032;-83
2022/02/19 04:23:08;;;;;;;6.20;1.70;;;20.80;41.10;;;;;;4968186;28;93265;-83
2022/02/19 04:25:34;;;;;;;4.93;1.70;;;20.70;41.20;;;;;;4968694;28;92692;-85
2022/02/19 04:28:20;;;;;;;3.58;1.88;;;20.70;41.40;;;;;;4968586;28;93429;-82
2022/02/19 04:30:45;;;;;;;5.00;2.00;;;20.70;41.10;;;;;;4969028;28;92874;-82
2022/02/19 04:33:11;;;;;;;4.78;1.75;;;20.70;41.10;;;;;;4968851;28;91657;-85
2022/02/19 04:35:36;;;;;;;5.20;1.77;;;20.70;42.10;;;;;;4967533;28;92803;-83
2022/02/19 04:38:02;;;;;;;5.30;1.95;;;20.70;41.60;;;;;;4967924;28;92642;-85
2022/02/19 04:40:28;;;;;;;3.17;1.40;;;20.70;41.70;;;;;;4968663;28;93971;-83
2022/02/19 04:42:54;;;;;;;4.38;1.90;;;20.60;41.10;;;;;;4967819;28;92442;-84
2022/02/19 04:45:19;;;;;;;5.53;2.10;;;20.60;41.50;;;;;;4966653;28;95602;-83
2022/02/19 04:47:45;;;;;;;4.25;1.90;;;20.60;41.40;;;;;;4967970;28;92475;-82
2022/02/19 04:50:11;;;;;;;4.82;1.85;;;20.60;41.40;;;;;;4967917;28;92837;-82
2022/02/19 04:52:37;;;;;;;3.80;1.70;;;20.60;41.20;;;;;;4968462;28;92916;-83
2022/02/19 04:55:04;;;;;;;3.50;1.40;;;20.60;41.60;;;;;;4967447;28;93119;-84
2022/02/19 04:57:30;;;;;;;5.57;1.95;;;20.60;41.30;;;;;;4968116;28;92728;-85
2022/02/19 04:59:56;;;;;;;3.95;2.08;;;20.60;41.40;;;;;;4968416;28;92199;-84
2022/02/19 05:02:22;;;;;;;3.65;1.70;;;20.60;41.10;;;;;;4968153;28;91967;-84
2022/02/19 05:04:47;;;;;;;4.25;1.52;;;20.60;41.50;;;;;;4966922;28;94117;-84
2022/02/19 05:07:13;;;;;;;5.38;1.90;;;20.60;41.50;;;;;;4967886;28;93646;-81
2022/02/19 05:09:49;;;;;;;3.28;1.45;;;20.60;41.40;;;;;;4958750;28;92868;-84
2022/02/19 05:12:14;;;;;;;2.88;1.55;;;20.50;41.70;;;;;;4967293;28;92394;-81
2022/02/19 05:14:40;;;;;;;3.03;1.67;;;20.50;41.50;;;;;;4967631;28;93933;-82
2022/02/19 05:17:06;;;;;;;4.93;1.75;;;20.50;41.70;;;;;;4967797;28;92338;-82
2022/02/19 05:19:32;;;;;;;3.17;1.55;;;20.50;41.70;;;;;;4968070;28;92772;-82
2022/02/19 05:21:58;;;;;;;3.53;1.60;;;20.50;41.50;;;;;;4965844;28;91696;-83
2022/02/19 05:24:24;;;;;;;4.25;1.58;;;20.50;41.40;;;;;;4966252;28;92563;-84
2022/02/19 05:26:49;;;;;;;4.35;1.65;;;20.50;41.50;;;;;;4966168;28;92524;-82
2022/02/19 05:29:15;;;;;;;3.70;1.65;;;20.50;41.80;;;;;;4967420;28;93514;-84
2022/02/19 05:31:41;;;;;;;3.42;1.80;;;20.50;41.90;;;;;;4968003;28;92405;-83
2022/02/19 05:34:06;;;;;;;4.10;1.70;;;20.40;41.50;;;;;;4967508;28;93595;-83
2022/02/19 05:36:32;;;;;;;3.72;1.48;;;20.50;41.30;;;;;;4965874;28;92447;-82
2022/02/19 05:39:01;;;;;;;4.35;1.70;;;20.40;41.60;;;;;;4966821;28;92764;-83
2022/02/19 05:41:27;;;;;;;3.03;1.60;;;20.40;41.80;;;;;;4968098;28;92045;-83
2022/02/19 05:43:52;;;;;;;5.00;2.05;;;20.40;41.60;;;;;;4967226;28;93043;-85
2022/02/19 05:46:18;;;;;;;4.80;1.85;;;20.40;41.70;;;;;;4967221;28;94715;-87
2022/02/19 05:48:44;;;;;;;4.45;1.90;;;20.40;41.60;;;;;;4967002;28;92342;-83
2022/02/19 05:51:10;;;;;;;4.65;1.77;;;20.40;41.80;;;;;;4967517;28;92925;-83
2022/02/19 05:53:35;;;;;;;3.65;1.48;;;20.40;41.60;;;;;;4966632;28;93924;-84
2022/02/19 05:56:02;;;;;;;4.68;1.60;;;20.40;41.80;;;;;;4967476;28;93636;-84
2022/02/19 05:58:28;;;;;;;3.15;1.65;;;20.40;41.90;;;;;;4961117;28;92222;-84
2022/02/19 06:00:54;;;;;;;4.00;1.60;;;20.40;41.80;;;;;;4966997;28;92967;-82
2022/02/19 06:03:20;;;;;;;4.80;1.92;;;20.40;41.80;;;;;;4964969;28;95341;-80
2022/02/19 06:05:46;;;;;;;5.75;1.90;;;20.40;41.70;;;;;;4966626;28;92407;-83
2022/02/19 06:08:11;;;;;;;3.33;1.60;;;20.40;41.50;;;;;;4967276;28;92490;-85
2022/02/19 06:10:37;;;;;;;4.78;1.73;;;20.40;41.80;;;;;;4958574;28;92332;-84
2022/02/19 06:13:03;;;;;;;4.07;1.95;;;20.40;41.40;;;;;;4966275;28;93484;-84
2022/02/19 06:15:28;;;;;;;3.95;1.60;;;20.40;41.30;;;;;;4966740;28;92794;-83
2022/02/19 06:17:54;;;;;;;5.63;1.73;;;20.30;41.30;;;;;;4966562;28;93130;-83
2022/02/19 06:20:20;;;;;;;4.18;1.60;;;20.40;41.60;;;;;;4967554;28;92863;-83
2022/02/19 06:22:45;;;;;;;6.15;2.08;;;20.40;41.40;;;;;;4966419;28;93952;-82
2022/02/19 06:25:11;;;;;;;5.82;2.15;;;20.30;41.60;;;;;;4967231;28;92045;-83
2022/02/19 06:27:44;;;;;;;5.50;2.13;;;20.30;41.40;;;;;;4966577;28;92870;-81
2022/02/19 06:30:10;;;;;;;3.38;1.73;;;20.30;41.60;;;;;;4953220;28;92567;-82
2022/02/19 06:32:37;;;;;;;4.38;1.65;;;20.30;41.50;;;;;;4967306;28;92723;-83
2022/02/19 06:35:03;;;;;;;5.43;1.80;;;20.30;41.70;;;;;;4965571;28;93782;-83
2022/02/19 06:37:29;;;;;;;2.85;1.50;;;20.30;41.40;;;;;;4967724;28;92847;-82
2022/02/19 06:39:54;;;;;;;4.25;1.85;;;20.30;41.40;;;;;;4967380;28;92444;-83
2022/02/19 06:42:23;;;;;;;3.65;1.67;;;20.30;41.60;;;;;;4965961;28;93717;-85
2022/02/19 06:44:51;;;;;;;3.43;1.67;;;20.30;41.40;;;;;;4966782;28;93181;-83
2022/02/19 06:47:16;;;;;;;4.53;1.70;;;20.30;41.50;;;;;;4964590;28;92405;-84
2022/02/19 06:49:42;;;;;;;4.55;1.77;;;20.20;41.50;;;;;;4963936;28;92485;-85
2022/02/19 06:52:07;;;;;;;4.15;1.95;;;20.20;41.40;;;;;;4964710;28;95526;-84
2022/02/19 06:54:33;;;;;;;3.63;1.52;;;20.20;41.50;;;;;;4966340;28;92494;-82
2022/02/19 06:57:00;;;;;;;3.45;1.73;;;20.30;41.70;;;;;;4982470;28;93149;-82
2022/02/19 06:59:25;;;;;;;4.03;1.63;;;20.20;41.60;;;;;;4966920;28;91790;-83
2022/02/19 07:01:51;;;;;;;2.85;1.40;;;20.20;41.50;;;;;;4966306;28;93444;-86
2022/02/19 07:04:17;;;;;;;4.95;1.60;;;20.20;41.70;;;;;;4966252;28;92852;-84
2022/02/19 07:06:42;;;;;;;3.60;1.63;;;20.20;41.70;;;;;;4966079;28;93940;-83
2022/02/19 07:09:08;;;;;;;3.58;1.77;;;20.20;41.80;;;;;;4966595;28;92965;-84
2022/02/19 07:11:33;;;;;;;4.95;2.17;;;20.20;41.90;;;;;;4966365;28;92956;-84
2022/02/19 07:13:59;;;;;;;3.85;1.48;;;20.20;41.90;;;;;;4966387;28;92446;-83
2022/02/19 07:16:25;;;;;;;3.92;1.70;;;20.20;41.90;;;;;;4966367;28;92931;-82
2022/02/19 07:18:50;;;;;;;4.43;1.88;;;20.20;41.80;;;;;;4966289;28;92870;-84
2022/02/19 07:21:16;;;;;;;3.75;1.45;;;20.20;41.90;;;;;;4967007;28;93553;-82
2022/02/19 07:23:42;;;;;;;3.17;1.58;;;20.20;41.70;;;;;;4966572;28;92443;-82
2022/02/19 07:26:07;;;;;;;4.38;1.85;;;20.20;41.40;;;;;;4968993;28;93240;-82
2022/02/19 07:28:34;;;;;;;4.13;1.90;;;20.20;42.20;;;;;;4969595;28;92656;-83
2022/02/19 07:30:59;;;;;;;3.55;1.65;;;20.20;41.50;;;;;;4969160;28;93469;-83
2022/02/19 07:33:25;;;;;;;3.83;1.65;;;20.20;41.60;;;;;;4967488;28;96335;-86
2022/02/19 07:35:53;;;;;;;5.20;1.65;;;20.20;41.90;;;;;;4969672;28;92185;-82
2022/02/19 07:38:19;;;;;;;4.68;1.77;;;20.30;41.70;;;;;;4969803;28;92329;-84
2022/02/19 07:40:44;;;;;;;5.43;1.80;;;20.30;41.80;;;;;;4959802;28;94482;-83
2022/02/19 07:43:10;;;;;;;3.53;1.90;;;20.20;41.80;;;;;;4966741;28;93114;-83
2022/02/19 07:45:35;;;;;;;4.95;1.85;;;20.20;42.00;;;;;;4969964;28;92210;-83
2022/02/19 07:48:01;;;;;;;4.65;1.60;;;20.30;41.00;;;;;;4969223;28;91278;-85
2022/02/19 07:58:39;;;;;;;4.68;1.52;;;20.40;42.90;;;;;;4968542;28;92272;-84
2022/02/19 08:01:08;;;;;;;4.63;1.70;;;20.50;43.20;;;;;;4967796;28;92661;-81
2022/02/19 08:03:34;;;;;;;5.15;2.15;;;20.50;43.60;;;;;;4966507;28;93654;-84
2022/02/19 08:06:00;;;;;;;8.88;2.15;;;20.60;44.20;;;;;;4969310;28;92086;-84
2022/02/19 08:08:26;;;;;;;6.65;2.10;;;20.60;43.90;;;;;;4969356;28;92454;-83
2022/02/19 08:10:52;;;;;;;4.68;1.80;;;20.70;44.10;;;;;;4967843;28;93189;-84
2022/02/19 08:13:20;;;;;;;4.63;1.80;;;20.70;44.20;;;;;;4968566;28;92687;-85
2022/02/19 08:15:46;;;;;;;7.88;2.05;;;20.80;44.40;;;;;;4968812;28;92681;-82
2022/02/19 08:18:13;;;;;;;6.28;2.15;;;20.80;44.60;;;;;;4968632;28;92049;-81
2022/02/19 08:20:44;;;;;;;6.95;2.08;;;20.80;44.40;;;;;;4966974;28;93804;-83
2022/02/19 08:23:11;;;;;;;7.00;2.03;;;20.80;44.50;;;;;;4965590;28;97232;-84
2022/02/19 08:25:39;;;;;;;8.18;2.60;;;20.80;44.60;;;;;;4968906;28;93738;-82
2022/02/19 08:28:08;;;;;;;6.40;2.00;;;20.80;45.10;;;;;;4968276;28;92755;-83
2022/02/19 08:30:38;;;;;;;14.50;2.78;;;20.80;44.60;;;;;;4969073;28;93292;-83
2022/02/19 08:33:06;;;;;;;11.57;3.00;;;20.90;43.80;;;;;;4968269;28;92829;-81
2022/02/19 08:35:33;;;;;;;9.23;2.38;;;20.80;42.60;;;;;;4968882;28;92724;-83
2022/02/19 08:37:58;;;;;;;5.28;1.92;;;20.80;44.20;;;;;;4967586;28;92082;-86
2022/02/19 08:40:24;;;;;;;6.40;2.50;;;20.80;44.80;;;;;;4968399;28;94147;-82
2022/02/19 08:42:50;;;;;;;10.95;2.55;;;20.80;44.90;;;;;;4957728;28;95783;-84
2022/02/19 08:45:16;;;;;;;7.18;2.22;;;20.80;45.20;;;;;;4965234;28;93526;-80
2022/02/19 08:47:44;;;;;;;9.30;1.95;;;20.90;44.90;;;;;;4968143;28;93027;-79
2022/02/19 08:50:14;;;;;;;9.18;2.38;;;20.90;45.20;;;;;;4967100;28;92524;-82
2022/02/19 08:52:40;;;;;;;11.93;2.42;;;20.90;45.20;;;;;;4981779;28;94402;-83
2022/02/19 08:55:07;;;;;;;7.03;2.78;;;20.90;45.50;;;;;;4966284;28;93161;-82
2022/02/19 08:57:33;;;;;;;8.90;2.42;;;20.90;45.50;;;;;;4969044;28;94281;-82
2022/02/19 08:59:58;;;;;;;10.70;3.40;;;20.90;45.40;;;;;;4906882;28;93526;-83
2022/02/19 09:02:24;;;;;;;8.85;3.08;;;20.90;44.60;;;;;;4966635;28;92223;-83
2022/02/19 09:04:55;;;;;;;9.35;2.60;;;20.90;42.00;;;;;;4968093;28;92241;-84
2022/02/19 09:07:20;;;;;;;7.82;2.60;;;20.90;43.10;;;;;;4970593;28;92733;-85
2022/02/19 09:09:47;;;;;;;8.38;3.00;;;20.90;44.20;;;;;;4959209;28;96149;-81
2022/02/19 09:12:14;;;;;;;9.55;2.70;;;20.90;44.80;;;;;;4968323;28;94392;-82
2022/02/19 09:14:40;;;;;;;13.05;2.90;;;20.90;44.70;;;;;;4965613;28;93680;-84
2022/02/19 09:17:06;;;;;;;16.08;3.08;;;20.90;44.50;;;;;;4965745;28;92476;-85
2022/02/19 09:19:32;;;;;;;11.73;3.22;;;20.90;44.80;;;;;;4966139;28;92874;-82
2022/02/19 09:21:58;;;;;;;8.18;2.45;;;21.00;44.80;;;;;;4966869;28;92270;-83
2022/02/19 09:24:24;;;;;;;155.93;24.23;;;21.00;43.80;;;;;;4967019;28;93008;-85
2022/02/19 09:26:49;;;;;;;110.00;18.58;;;21.00;43.30;;;;;;4965732;28;92233;-82
2022/02/19 09:29:15;;;;;;;75.70;13.70;;;21.00;42.90;;;;;;4964564;28;93037;-85
2022/02/19 09:31:41;;;;;;;41.65;8.05;;;21.00;42.70;;;;;;4963194;28;92628;-83
2022/02/19 09:34:10;;;;;;;51.75;8.70;;;21.00;43.50;;;;;;4978522;28;93036;-85
2022/02/19 09:36:37;;;;;;;37.95;7.93;;;21.00;44.00;;;;;;4964838;28;92659;-85
2022/02/19 09:39:04;;;;;;;34.47;7.78;;;21.10;44.40;;;;;;4965902;28;94380;-84
2022/02/19 09:41:30;;;;;;;36.15;7.38;;;21.00;43.70;;;;;;4967171;28;92850;-84
2022/02/19 09:44:07;;;;;;;43.40;7.82;;;21.10;44.40;;;;;;4966539;28;92333;-86
2022/02/19 09:46:32;;;;;;;35.92;6.60;;;21.00;44.80;;;;;;4968880;28;92223;-84
2022/02/19 09:49:01;;;;;;;48.17;16.80;;;21.10;45.40;;;;;;4967036;28;94226;-85
2022/02/19 09:51:27;;;;;;;48.17;17.70;;;21.10;45.30;;;;;;4969407;28;92545;-86
2022/02/19 09:53:53;;;;;;;48.17;16.77;;;21.10;44.50;;;;;;4967246;28;92740;-85
2022/02/19 09:56:18;;;;;;;40.00;12.73;;;21.10;44.80;;;;;;4965082;28;92504;-83
2022/02/19 09:58:45;;;;;;;57.38;19.85;;;21.10;44.30;;;;;;4965637;28;93963;-84
2022/02/19 10:01:18;;;;;;;45.65;16.38;;;21.10;43.70;;;;;;4964711;28;94516;-84
2022/02/19 10:03:45;;;;;;;43.97;13.73;;;21.10;44.20;;;;;;4965394;28;92561;-86
2022/02/19 10:06:13;;;;;;;44.60;14.43;;;21.10;45.00;;;;;;4966606;28;92461;-86
2022/02/19 10:08:39;;;;;;;38.95;15.32;;;21.10;45.00;;;;;;4965890;28;93404;-83
2022/02/19 10:11:06;;;;;;;38.58;12.75;;;21.10;44.30;;;;;;4965543;28;92745;-86
2022/02/19 10:13:31;;;;;;;38.50;12.20;;;21.20;46.20;;;;;;4964062;28;92783;-84
2022/02/19 10:15:58;;;;;;;51.55;16.70;;;21.20;46.90;;;;;;4966217;28;91754;-86
2022/02/19 10:18:34;;;;;;;57.15;19.63;;;21.10;46.50;;;;;;4965941;28;93255;-86
2022/02/19 10:21:24;;;;;;;66.63;19.88;;;21.20;45.70;;;;;;4956640;28;96693;-85
2022/02/19 10:23:56;;;;;;;62.03;20.67;;;21.20;45.60;;;;;;4965456;28;93937;-81
2022/02/19 10:26:27;;;;;;;60.70;19.17;;;21.20;45.50;;;;;;4967319;28;93135;-84
2022/02/19 10:29:13;;;;;;;71.43;21.08;;;21.20;45.50;;;;;;4966410;28;93099;-86
2022/02/19 10:31:38;;;;;;;39.33;14.00;;;21.30;45.70;;;;;;4967437;28;92480;-85
2022/02/19 10:34:16;;;;;;;52.97;18.00;;;21.20;44.30;;;;;;4966042;28;92552;-83
2022/02/19 10:36:47;;;;;;;52.30;17.23;;;21.20;45.40;;;;;;4965660;28;92810;-85
2022/02/19 10:39:13;;;;;;;62.33;18.05;;;21.30;45.50;;;;;;4965426;28;92839;-84
2022/02/19 10:41:41;;;;;;;51.70;17.75;;;21.30;45.50;;;;;;4962587;28;94099;-83
2022/02/19 10:44:22;;;;;;;51.17;15.65;;;21.20;45.90;;;;;;4965546;28;92722;-83
2022/02/19 10:46:49;;;;;;;51.33;15.68;;;21.30;46.70;;;;;;4964717;28;92503;-82
2022/02/19 10:49:14;;;;;;;46.53;14.00;;;21.30;46.00;;;;;;4964526;28;93527;-82
2022/02/19 10:51:43;;;;;;;46.00;14.35;;;21.30;46.60;;;;;;4964733;28;93322;-81
2022/02/19 10:54:11;;;;;;;52.70;15.60;;;21.30;46.10;;;;;;4964523;28;92421;-83
2022/02/19 10:56:38;;;;;;;47.50;15.65;;;21.20;45.60;;;;;;4965731;28;92567;-82
2022/02/19 10:59:05;;;;;;;41.92;15.63;;;21.30;45.90;;;;;;4964655;28;93084;-83
2022/02/19 11:01:44;;;;;;;50.03;15.20;;;21.30;46.80;;;;;;4967162;28;92593;-82
2022/02/19 11:04:14;;;;;;;45.03;14.17;;;21.30;47.50;;;;;;4968299;28;92163;-82
2022/02/19 11:06:40;;;;;;;43.75;16.27;;;21.40;48.00;;;;;;4968104;28;92155;-83
2022/02/19 11:09:08;;;;;;;40.45;14.88;;;21.40;48.40;;;;;;4967945;28;92721;-84
2022/02/19 11:11:35;;;;;;;47.17;13.68;;;21.30;48.70;;;;;;4968434;28;93573;-84
2022/02/19 11:14:05;;;;;;;43.03;14.02;;;21.40;49.10;;;;;;4968179;28;92973;-85
2022/02/19 11:16:34;;;;;;;41.72;12.70;;;21.40;48.80;;;;;;4967525;28;93020;-84
2022/02/19 11:19:04;;;;;;;40.70;13.13;;;21.40;47.50;;;;;;4967516;28;92954;-83
2022/02/19 11:21:31;;;;;;;37.40;13.07;;;21.40;47.50;;;;;;4966296;28;93930;-83
2022/02/19 11:24:02;;;;;;;36.72;12.52;;;21.40;47.80;;;;;;4968121;28;92500;-84
2022/02/19 11:26:28;;;;;;;34.45;11.85;;;21.40;47.90;;;;;;4968446;28;92977;-82
2022/02/19 11:28:59;;;;;;;38.00;12.77;;;21.40;48.20;;;;;;4967478;28;94106;-83
2022/02/19 11:31:31;;;;;;;37.00;12.52;;;21.40;48.30;;;;;;4969451;28;92251;-84
2022/02/19 11:34:03;;;;;;;33.53;12.10;;;21.40;48.30;;;;;;4968555;28;92764;-84
2022/02/19 11:36:30;;;;;;;38.58;11.38;;;21.40;48.30;;;;;;4968305;28;92880;-82
2022/02/19 11:38:56;;;;;;;37.80;12.43;;;21.40;48.10;;;;;;4968438;28;94015;-83
2022/02/19 11:41:39;;;;;;;31.20;10.57;;;21.40;48.40;;;;;;4964381;28;96255;-82
2022/02/19 11:44:24;;;;;;;31.73;11.07;;;21.40;47.70;;;;;;4968646;28;92712;-84
2022/02/19 11:46:55;;;;;;;28.65;9.38;;;21.40;47.20;;;;;;4966754;28;93398;-82
2022/02/19 11:49:30;;;;;;;29.83;10.18;;;21.40;46.20;;;;;;4967400;28;92955;-84
2022/02/19 11:52:11;;;;;;;31.60;11.60;;;21.40;47.30;;;;;;4967026;28;93131;-82
2022/02/19 11:54:46;;;;;;;28.10;10.65;;;21.40;47.20;;;;;;4913597;28;92608;-84
2022/02/19 11:57:21;;;;;;;32.83;11.75;;;21.40;46.90;;;;;;4970845;28;91325;-82
2022/02/19 11:59:49;;;;;;;27.60;10.45;;;21.40;47.50;;;;;;4966979;28;93004;-83
2022/02/19 12:02:24;;;;;;;26.27;10.63;;;21.30;47.90;;;;;;4953962;28;96171;-82
2022/02/19 12:05:34;;;;;;;30.50;10.68;;;21.30;48.00;;;;;;4966674;28;93373;-83
2022/02/19 12:08:02;;;;;;;33.03;10.18;;;21.30;48.30;;;;;;4965141;28;92807;-82
2022/02/19 12:10:28;;;;;;;30.00;9.50;;;21.30;48.30;;;;;;4967681;28;93560;-83
2022/02/19 12:13:10;;;;;;;23.27;9.45;;;21.30;48.20;;;;;;4967315;28;92890;-85
2022/02/19 12:15:37;;;;;;;28.40;9.95;;;21.30;48.20;;;;;;4968793;28;92834;-85
2022/02/19 12:18:04;;;;;;;33.92;11.38;;;21.40;48.40;;;;;;4967596;28;92841;-84
2022/02/19 12:20:32;;;;;;;33.10;9.88;;;21.40;48.30;;;;;;4967091;28;93060;-85
2022/02/19 12:23:01;;;;;;;29.98;10.95;;;21.40;48.40;;;;;;4967728;28;92486;-84
2022/02/19 12:25:57;;;;;;;29.42;9.98;;;21.30;48.50;;;;;;4968101;28;92616;-85
2022/02/19 12:28:23;;;;;;;27.65;9.65;;;21.30;48.10;;;;;;4967393;28;92110;-85
2022/02/19 12:31:11;;;;;;;31.52;10.02;;;21.40;48.10;;;;;;4966994;28;93978;-84
2022/02/19 12:33:37;;;;;;;27.25;10.13;;;21.30;47.70;;;;;;4966154;28;93807;-84
2022/02/19 12:36:14;;;;;;;29.75;10.52;;;21.30;48.00;;;;;;4967232;28;92486;-83
2022/02/19 12:38:48;;;;;;;27.98;9.10;;;21.30;47.90;;;;;;4968216;28;92793;-85
2022/02/19 12:41:14;;;;;;;31.58;10.30;;;21.40;47.70;;;;;;4967139;28;93237;-84
2022/02/19 12:43:39;;;;;;;23.55;9.32;;;21.30;47.60;;;;;;4966140;28;92726;-84
2022/02/19 12:46:05;;;;;;;23.67;9.18;;;21.30;47.30;;;;;;4967891;28;92850;-84
2022/02/19 12:48:30;;;;;;;24.25;8.82;;;21.30;47.90;;;;;;4968336;28;91337;-84
2022/02/19 12:51:00;;;;;;;30.85;10.55;;;21.30;47.60;;;;;;4968007;28;93332;-84